createdAt,value
2018-03-27T00:00:43.357Z,3.90
2018-03-27T00:03:10.944Z,4.00
2018-03-27T00:05:38.561Z,3.90
2018-03-27T00:08:06.929Z,3.90
2018-03-27T00:10:35.318Z,3.80
2018-03-27T00:13:02.918Z,3.80
2018-03-27T00:15:30.548Z,3.80
2018-03-27T00:17:58.142Z,3.80
2018-03-27T00:20:26.498Z,3.60
2018-03-27T00:22:54.114Z,3.50
2018-03-27T00:25:22.462Z,3.70
2018-03-27T00:28:01.941Z,3.60
2018-03-27T00:30:41.443Z,3.70
2018-03-27T00:33:20.981Z,3.70
2018-03-27T00:36:00.401Z,3.80
2018-03-27T00:38:40.017Z,3.70
2018-03-27T00:41:19.441Z,3.80
2018-03-27T00:43:47.052Z,3.80
2018-03-27T00:46:14.665Z,3.80
2018-03-27T00:48:42.286Z,3.90
2018-03-27T00:51:09.870Z,3.90
2018-03-27T00:53:37.459Z,3.80
2018-03-27T00:56:05.065Z,3.90
2018-03-27T00:58:33.416Z,3.80
2018-03-27T01:01:01.025Z,3.70
2018-03-27T01:03:29.381Z,3.70
2018-03-27T01:05:56.993Z,3.70
2018-03-27T01:08:25.345Z,3.60
2018-03-27T01:10:52.968Z,3.60
2018-03-27T01:13:20.579Z,3.60
2018-03-27T01:15:48.161Z,3.50
2018-03-27T01:18:15.778Z,3.50
2018-03-27T01:20:44.136Z,3.40
2018-03-27T01:23:11.739Z,3.30
2018-03-27T01:25:39.332Z,3.40
2018-03-27T01:28:07.049Z,3.60
2018-03-27T01:30:34.640Z,3.50
2018-03-27T01:33:02.295Z,3.60
2018-03-27T01:35:29.888Z,3.40
2018-03-27T01:37:57.468Z,3.40
2018-03-27T01:40:25.081Z,3.40
2018-03-27T01:42:52.665Z,3.40
2018-03-27T01:45:20.277Z,3.40
2018-03-27T01:47:47.869Z,3.30
2018-03-27T01:50:15.493Z,3.30
2018-03-27T01:52:43.102Z,3.20
2018-03-27T01:55:10.716Z,3.20
2018-03-27T01:57:38.309Z,3.30
2018-03-27T02:00:05.933Z,3.30
2018-03-27T02:02:33.529Z,3.20
2018-03-27T02:05:01.881Z,3.30
2018-03-27T02:07:29.475Z,3.30
2018-03-27T02:09:57.060Z,3.30
2018-03-27T02:12:30.252Z,3.20
2018-03-27T02:15:04.369Z,3.40
2018-03-27T02:17:37.619Z,3.40
2018-03-27T02:20:10.819Z,3.40
2018-03-27T02:22:38.446Z,3.40
2018-03-27T02:25:06.036Z,3.20
2018-03-27T02:27:33.632Z,3.20
2018-03-27T02:30:01.245Z,3.20
2018-03-27T02:32:28.826Z,3.20
2018-03-27T02:34:56.469Z,3.30
2018-03-27T02:37:24.804Z,3.20
2018-03-27T02:39:52.414Z,3.10
2018-03-27T02:42:20.768Z,3.20
2018-03-27T02:44:48.425Z,3.10
2018-03-27T02:47:16.006Z,3.20
2018-03-27T02:49:43.622Z,3.20
2018-03-27T02:52:11.971Z,3.10
2018-03-27T02:54:39.601Z,3.00
2018-03-27T02:57:07.199Z,3.10
2018-03-27T02:59:34.788Z,3.10
2018-03-27T03:02:02.386Z,3.20
2018-03-27T03:04:30.006Z,3.20
2018-03-27T03:06:57.603Z,3.10
2018-03-27T03:09:25.176Z,3.10
2018-03-27T03:11:52.784Z,3.00
2018-03-27T03:14:20.366Z,3.10
2018-03-27T03:16:48.712Z,3.20
2018-03-27T03:19:16.320Z,3.10
2018-03-27T03:21:43.905Z,3.20
2018-03-27T03:24:12.281Z,3.00
2018-03-27T03:26:39.872Z,3.00
2018-03-27T03:29:08.264Z,3.00
2018-03-27T03:31:36.613Z,3.00
2018-03-27T03:34:04.216Z,3.00
2018-03-27T03:36:32.878Z,2.80
2018-03-27T03:39:00.502Z,2.70
2018-03-27T03:41:28.865Z,2.80
2018-03-27T03:43:56.443Z,2.70
2018-03-27T03:46:24.044Z,2.70
2018-03-27T03:48:51.914Z,2.80
2018-03-27T03:51:20.288Z,2.70
2018-03-27T03:53:47.937Z,2.60
2018-03-27T03:56:15.548Z,2.70
2018-03-27T03:58:43.912Z,2.60
2018-03-27T04:01:11.551Z,2.60
2018-03-27T04:03:39.452Z,2.60
2018-03-27T04:06:07.046Z,2.60
2018-03-27T04:08:34.669Z,2.50
2018-03-27T04:11:02.254Z,2.60
2018-03-27T04:13:29.871Z,2.60
2018-03-27T04:15:57.461Z,2.50
2018-03-27T04:18:25.844Z,2.60
2018-03-27T04:20:53.432Z,2.60
2018-03-27T04:23:21.809Z,2.70
2018-03-27T04:25:49.395Z,2.60
2018-03-27T04:28:17.754Z,2.70
2018-03-27T04:30:45.369Z,2.60
2018-03-27T04:33:12.986Z,2.70
2018-03-27T04:35:40.584Z,2.60
2018-03-27T04:38:08.234Z,2.50
2018-03-27T04:40:35.836Z,2.50
2018-03-27T04:43:03.440Z,2.60
2018-03-27T04:45:31.807Z,2.50
2018-03-27T04:47:59.409Z,2.40
2018-03-27T04:50:26.992Z,2.60
2018-03-27T04:52:54.592Z,2.50
2018-03-27T04:55:22.173Z,2.40
2018-03-27T04:57:49.781Z,2.30
2018-03-27T05:00:18.135Z,2.20
2018-03-27T05:02:45.802Z,2.10
2018-03-27T05:05:13.399Z,2.10
2018-03-27T05:07:41.108Z,2.10
2018-03-27T05:10:09.460Z,2.20
2018-03-27T05:12:37.083Z,2.20
2018-03-27T05:15:04.660Z,2.20
2018-03-27T05:17:32.238Z,2.20
2018-03-27T05:19:59.849Z,2.20
2018-03-27T05:22:27.513Z,2.30
2018-03-27T05:24:55.204Z,2.20
2018-03-27T05:27:22.786Z,2.40
2018-03-27T05:29:50.391Z,2.40
2018-03-27T05:32:18.743Z,2.40
2018-03-27T05:34:46.373Z,2.30
2018-03-27T05:37:13.981Z,2.40
2018-03-27T05:39:41.590Z,2.40
2018-03-27T05:42:09.969Z,2.50
2018-03-27T05:44:37.548Z,2.40
2018-03-27T05:47:05.156Z,2.40
2018-03-27T05:49:32.751Z,2.50
2018-03-27T05:52:00.358Z,2.50
2018-03-27T05:54:28.748Z,2.50
2018-03-27T05:56:56.370Z,2.40
2018-03-27T05:59:23.963Z,2.50
2018-03-27T06:01:51.565Z,2.60
2018-03-27T06:04:19.180Z,2.80
2018-03-27T06:06:46.767Z,2.70
2018-03-27T06:09:14.379Z,2.60
2018-03-27T06:11:42.037Z,2.70
2018-03-27T06:14:09.635Z,2.80
2018-03-27T06:16:37.236Z,2.70
2018-03-27T06:19:05.610Z,2.70
2018-03-27T06:21:33.961Z,2.80
2018-03-27T06:24:01.574Z,2.80
2018-03-27T06:26:29.173Z,2.80
2018-03-27T06:28:56.774Z,2.90
2018-03-27T06:31:24.386Z,3.00
2018-03-27T06:33:52.767Z,3.30
2018-03-27T06:36:20.386Z,3.20
2018-03-27T06:38:47.997Z,3.30
2018-03-27T06:41:15.614Z,3.40
2018-03-27T06:43:43.966Z,3.50
2018-03-27T06:46:11.585Z,3.50
2018-03-27T06:48:39.951Z,3.30
2018-03-27T06:51:07.549Z,3.30
2018-03-27T06:53:35.971Z,3.40
2018-03-27T06:56:03.568Z,3.40
2018-03-27T06:58:31.179Z,3.50
2018-03-27T07:00:59.522Z,3.70
2018-03-27T07:03:27.142Z,3.60
2018-03-27T07:05:54.760Z,3.90
2018-03-27T07:08:22.418Z,3.90
2018-03-27T07:10:50.044Z,3.70
2018-03-27T07:13:18.417Z,3.70
2018-03-27T07:15:46.030Z,3.70
2018-03-27T07:18:13.658Z,3.60
2018-03-27T07:20:41.258Z,3.40
2018-03-27T07:23:08.844Z,3.20
2018-03-27T07:25:36.445Z,3.40
2018-03-27T07:28:04.023Z,3.40
2018-03-27T07:30:31.678Z,3.60
2018-03-27T07:33:00.041Z,3.50
2018-03-27T07:35:27.697Z,3.50
2018-03-27T07:37:55.296Z,3.40
2018-03-27T07:40:22.893Z,3.50
2018-03-27T07:42:51.260Z,3.80
2018-03-27T07:45:18.864Z,3.80
2018-03-27T07:47:47.252Z,3.80
2018-03-27T07:50:19.577Z,3.50
2018-03-27T07:52:47.191Z,3.40
2018-03-27T07:55:14.791Z,3.50
2018-03-27T07:57:42.410Z,3.70
2018-03-27T08:00:10.006Z,4.00
2018-03-27T08:02:37.620Z,4.00
2018-03-27T08:05:05.236Z,4.00
2018-03-27T08:07:32.829Z,4.20
2018-03-27T08:10:00.443Z,4.20
2018-03-27T08:12:28.039Z,4.30
2018-03-27T08:14:55.637Z,4.40
2018-03-27T08:17:23.221Z,4.30
2018-03-27T08:19:50.829Z,4.30
2018-03-27T08:22:18.416Z,4.20
2018-03-27T08:24:46.000Z,4.30
2018-03-27T08:27:14.512Z,4.40
2018-03-27T08:29:42.145Z,4.40
2018-03-27T08:32:10.495Z,4.20
2018-03-27T08:34:38.062Z,4.20
2018-03-27T08:37:05.663Z,4.20
2018-03-27T08:39:33.266Z,4.30
2018-03-27T08:42:00.873Z,4.30
2018-03-27T08:44:28.471Z,4.50
2018-03-27T08:46:56.881Z,4.40
2018-03-27T08:49:25.252Z,4.50
2018-03-27T08:51:52.840Z,4.50
2018-03-27T08:54:21.238Z,5.00
2018-03-27T08:56:49.674Z,5.10
2018-03-27T08:59:17.272Z,5.00
2018-03-27T09:01:44.885Z,5.30
2018-03-27T09:04:12.497Z,5.60
2018-03-27T09:50:21.294Z,6.20
2018-03-27T09:52:49.674Z,7.50
2018-03-27T09:55:18.028Z,7.50
2018-03-27T09:57:45.632Z,7.40
2018-03-27T10:00:13.238Z,7.50
2018-03-27T10:02:40.833Z,7.60
2018-03-27T10:05:08.451Z,7.50
2018-03-27T10:07:36.053Z,7.40
2018-03-27T10:10:03.656Z,7.20
2018-03-27T10:12:31.261Z,7.40
2018-03-27T10:14:58.890Z,7.70
2018-03-27T10:17:26.479Z,8.20
2018-03-27T10:19:54.081Z,8.60
2018-03-27T10:22:21.684Z,9.00
2018-03-27T10:24:50.053Z,10.70
2018-03-27T10:27:17.674Z,10.60
2018-03-27T10:29:45.269Z,10.50
2018-03-27T10:32:12.903Z,10.70
2018-03-27T10:34:41.255Z,9.80
2018-03-27T10:37:08.920Z,9.80
2018-03-27T10:39:36.507Z,10.40
2018-03-27T10:42:04.105Z,11.20
2018-03-27T10:44:32.482Z,9.20
2018-03-27T10:47:00.127Z,9.10
2018-03-27T10:49:27.759Z,9.40
2018-03-27T10:51:56.148Z,11.10
2018-03-27T10:54:24.524Z,11.20
2018-03-27T10:56:52.129Z,11.10
2018-03-27T10:59:19.752Z,11.60
2018-03-27T11:01:47.343Z,11.90
2018-03-27T11:04:15.723Z,11.30
2018-03-27T11:06:43.338Z,11.20
2018-03-27T11:09:10.931Z,11.30
2018-03-27T11:11:38.560Z,11.60
2018-03-27T11:14:06.920Z,11.20
2018-03-27T11:16:34.869Z,11.20
2018-03-27T11:19:02.468Z,10.50
2018-03-27T11:21:30.097Z,10.60
2018-03-27T11:23:57.706Z,9.60
2018-03-27T11:26:25.331Z,9.60
2018-03-27T11:28:53.707Z,10.90
2018-03-27T11:31:21.294Z,10.90
2018-03-27T11:33:49.669Z,11.30
2018-03-27T11:36:17.268Z,11.20
2018-03-27T11:38:45.655Z,11.70
2018-03-27T11:41:13.277Z,11.70
2018-03-27T11:43:40.913Z,11.20
2018-03-27T11:46:08.529Z,11.30
2018-03-27T11:48:36.168Z,12.50
2018-03-27T11:51:03.773Z,13.50
2018-03-27T11:53:31.368Z,12.00
2018-03-27T11:55:58.984Z,11.00
2018-03-27T11:58:26.574Z,11.70
2018-03-27T12:00:54.269Z,12.90
2018-03-27T12:03:21.855Z,12.80
2018-03-27T12:05:49.540Z,13.10
2018-03-27T12:08:17.135Z,12.80
2018-03-27T12:10:45.526Z,10.50
2018-03-27T12:13:13.129Z,10.40
2018-03-27T12:15:40.728Z,10.40
2018-03-27T12:18:08.362Z,10.50
2018-03-27T12:20:36.717Z,11.70
2018-03-27T12:23:04.346Z,11.60
2018-03-27T12:25:31.937Z,11.70
2018-03-27T12:27:59.548Z,11.60
2018-03-27T12:30:27.141Z,10.80
2018-03-27T12:32:55.527Z,12.10
2018-03-27T12:35:23.143Z,12.00
2018-03-27T12:37:50.785Z,12.10
2018-03-27T12:40:19.153Z,12.50
2018-03-27T12:42:46.773Z,12.40
2018-03-27T12:45:14.408Z,11.70
2018-03-27T12:47:42.003Z,10.90
2018-03-27T12:50:09.603Z,10.60
2018-03-27T12:52:37.195Z,11.50
2018-03-27T12:55:04.824Z,12.50
2018-03-27T12:57:32.431Z,13.10
2018-03-27T13:00:00.056Z,14.40
2018-03-27T13:02:27.675Z,14.60
2018-03-27T13:04:56.083Z,15.20
2018-03-27T13:07:23.676Z,15.40
2018-03-27T13:09:51.229Z,15.50
2018-03-27T13:12:18.817Z,15.10
2018-03-27T13:14:46.374Z,15.10
2018-03-27T13:17:13.950Z,14.30
2018-03-27T13:19:41.516Z,15.30
2018-03-27T13:22:09.113Z,15.40
2018-03-27T13:24:36.673Z,16.00
2018-03-27T13:27:04.245Z,15.70
2018-03-27T13:29:31.824Z,15.40
2018-03-27T13:31:59.389Z,16.20
2018-03-27T13:34:26.974Z,16.80
2018-03-27T13:36:54.555Z,15.00
2018-03-27T13:39:22.195Z,14.80
2018-03-27T13:41:49.851Z,15.90
2018-03-27T13:44:18.261Z,16.10
2018-03-27T13:46:45.849Z,16.10
2018-03-27T13:49:13.397Z,16.00
2018-03-27T13:51:40.987Z,16.10
2018-03-27T13:54:08.560Z,17.20
2018-03-27T13:56:36.200Z,16.00
2018-03-27T13:59:05.048Z,17.20
2018-03-27T14:01:32.838Z,17.20
2018-03-27T14:04:00.446Z,16.80
2018-03-27T14:06:28.788Z,17.50
2018-03-27T14:08:56.344Z,17.40
2018-03-27T14:11:23.937Z,16.60
2018-03-27T14:13:51.534Z,16.40
2018-03-27T14:16:19.104Z,16.90
2018-03-27T14:18:52.044Z,14.70
2018-03-27T14:21:19.739Z,14.60
2018-03-27T14:23:47.369Z,14.10
2018-03-27T14:26:14.975Z,15.20
2018-03-27T14:28:42.581Z,15.60
2018-03-27T14:31:10.212Z,14.20
2018-03-27T14:33:37.817Z,12.40
2018-03-27T14:36:05.409Z,11.70
2018-03-27T14:38:32.997Z,11.20
2018-03-27T14:41:01.404Z,9.80
2018-03-27T14:43:29.773Z,9.50
2018-03-27T14:45:57.364Z,9.40
2018-03-27T14:48:24.986Z,9.10
2018-03-27T14:50:52.576Z,9.00
2018-03-27T14:53:20.153Z,8.80
2018-03-27T14:55:47.801Z,8.60
2018-03-27T14:58:15.365Z,8.60
2018-03-27T15:00:42.958Z,8.40
2018-03-27T15:03:10.595Z,8.40
2018-03-27T15:05:38.169Z,8.30
2018-03-27T15:08:05.764Z,8.20
2018-03-27T15:10:33.400Z,8.20
2018-03-27T15:13:01.012Z,8.00
2018-03-27T15:15:28.692Z,8.00
2018-03-27T15:17:56.298Z,7.80
2018-03-27T15:20:23.880Z,7.70
2018-03-27T15:22:52.301Z,7.90
2018-03-27T15:25:20.601Z,7.90
2018-03-27T15:27:48.179Z,7.90
2018-03-27T15:30:15.773Z,7.70
2018-03-27T15:32:43.361Z,7.50
2018-03-27T15:35:10.964Z,7.60
2018-03-27T15:37:39.352Z,7.50
2018-03-27T15:40:07.703Z,7.50
2018-03-27T15:42:35.321Z,7.50
2018-03-27T15:45:03.718Z,7.40
2018-03-27T15:47:32.080Z,7.40
2018-03-27T15:49:59.660Z,7.40
2018-03-27T15:52:27.305Z,7.40
2018-03-27T15:54:54.993Z,7.40
2018-03-27T15:57:22.668Z,7.30
2018-03-27T15:59:50.323Z,7.30
2018-03-27T16:02:17.981Z,7.20
2018-03-27T16:04:45.705Z,7.20
2018-03-27T16:07:13.432Z,7.30
2018-03-27T16:09:41.048Z,7.10
2018-03-27T16:12:08.636Z,7.20
2018-03-27T16:14:36.346Z,7.20
2018-03-27T16:17:03.932Z,7.10
2018-03-27T16:19:31.523Z,7.00
2018-03-27T16:21:59.112Z,7.00
2018-03-27T16:24:26.737Z,6.90
2018-03-27T16:26:54.430Z,6.90
2018-03-27T16:29:22.048Z,7.00
2018-03-27T16:31:49.628Z,6.90
2018-03-27T16:34:18.012Z,7.00
2018-03-27T16:36:46.364Z,6.90
2018-03-27T16:39:13.945Z,6.90
2018-03-27T16:41:41.553Z,6.80
2018-03-27T16:44:09.126Z,6.60
2018-03-27T16:46:36.798Z,6.60
2018-03-27T16:49:04.401Z,6.60
2018-03-27T16:51:31.994Z,6.50
2018-03-27T16:53:59.564Z,6.50
2018-03-27T16:56:27.182Z,6.50
2018-03-27T16:58:54.780Z,6.50
2018-03-27T17:01:23.120Z,6.30
2018-03-27T17:03:50.708Z,6.20
2018-03-27T17:06:18.294Z,6.30
2018-03-27T17:08:45.902Z,6.20
2018-03-27T17:11:14.264Z,6.20
2018-03-27T17:13:41.867Z,6.10
2018-03-27T17:16:10.217Z,6.00
2018-03-27T17:18:37.838Z,6.00
2018-03-27T17:21:05.424Z,6.00
2018-03-27T17:23:32.988Z,5.90
2018-03-27T17:26:01.065Z,5.80
2018-03-27T17:28:28.671Z,5.80
2018-03-27T17:30:56.268Z,5.70
2018-03-27T17:33:23.850Z,5.60
2018-03-27T17:35:51.461Z,5.50
2018-03-27T17:38:19.046Z,5.50
2018-03-27T17:40:46.634Z,5.40
2018-03-27T17:43:14.254Z,5.40
2018-03-27T17:45:41.837Z,5.10
2018-03-27T17:48:10.223Z,4.70
2018-03-27T17:50:37.812Z,4.70
2018-03-27T17:53:06.208Z,4.50
2018-03-27T17:55:34.540Z,4.40
2018-03-27T17:58:02.167Z,4.40
2018-03-27T18:00:30.604Z,4.30
2018-03-27T18:02:58.177Z,4.30
2018-03-27T18:05:25.771Z,4.20
2018-03-27T18:07:53.368Z,4.10
2018-03-27T18:10:21.099Z,4.10
2018-03-27T18:12:48.680Z,4.00
2018-03-27T18:15:16.288Z,4.00
2018-03-27T18:17:43.864Z,3.90
2018-03-27T18:20:11.479Z,3.80
2018-03-27T18:22:39.060Z,3.80
2018-03-27T18:25:06.637Z,3.80
2018-03-27T18:27:34.235Z,3.70
2018-03-27T18:30:01.888Z,3.70
2018-03-27T18:32:29.480Z,3.70
2018-03-27T18:34:57.852Z,3.60
2018-03-27T18:37:25.504Z,3.60
2018-03-27T18:39:53.863Z,3.50
2018-03-27T18:42:21.462Z,3.50
2018-03-27T18:44:49.068Z,3.50
2018-03-27T18:47:16.650Z,3.50
2018-03-27T18:49:44.273Z,3.40
2018-03-27T18:52:11.844Z,3.40
2018-03-27T18:54:40.215Z,3.50
2018-03-27T18:57:07.798Z,3.40
2018-03-27T18:59:36.218Z,3.50
2018-03-27T19:02:03.789Z,3.40
2018-03-27T19:04:31.364Z,3.60
2018-03-27T19:06:58.973Z,3.60
2018-03-27T19:09:26.631Z,3.60
2018-03-27T19:11:54.228Z,3.60
2018-03-27T19:14:21.812Z,3.60
2018-03-27T19:16:49.443Z,3.60
2018-03-27T19:19:17.024Z,3.70
2018-03-27T19:21:44.613Z,3.60
2018-03-27T19:24:12.238Z,3.60
2018-03-27T19:26:39.824Z,3.70
2018-03-27T19:29:07.418Z,3.70
2018-03-27T19:31:35.020Z,3.70
2018-03-27T19:34:02.614Z,3.70
2018-03-27T19:36:30.988Z,3.70
2018-03-27T19:38:59.344Z,3.80
2018-03-27T19:41:27.127Z,3.70
2018-03-27T19:43:54.738Z,3.70
2018-03-27T19:46:23.116Z,3.60
2018-03-27T19:48:50.734Z,3.60
2018-03-27T19:51:18.336Z,3.60
2018-03-27T19:53:46.004Z,3.60
2018-03-27T19:56:13.593Z,3.60
2018-03-27T19:58:41.229Z,3.50
2018-03-27T20:01:08.820Z,3.60
2018-03-27T20:03:36.411Z,3.50
2018-03-27T20:06:04.027Z,3.40
2018-03-27T20:08:31.630Z,3.40
2018-03-27T20:10:59.232Z,3.40
2018-03-27T20:13:26.848Z,3.40
2018-03-27T20:15:55.229Z,3.40
2018-03-27T20:18:22.844Z,3.30
2018-03-27T20:20:50.428Z,3.40
2018-03-27T20:23:18.033Z,3.30
2018-03-27T20:25:45.637Z,3.40
2018-03-27T20:28:13.306Z,3.40
2018-03-27T20:30:40.862Z,3.50
2018-03-27T20:33:08.470Z,3.50
2018-03-27T20:35:36.129Z,3.50
2018-03-27T20:38:03.753Z,3.50
2018-03-27T20:40:31.336Z,3.40
2018-03-27T20:42:58.951Z,3.40
2018-03-27T20:45:27.424Z,3.40
2018-03-27T20:47:55.275Z,3.30
2018-03-27T20:50:23.053Z,3.40
2018-03-27T20:52:51.633Z,3.50
2018-03-27T20:55:19.342Z,3.50
2018-03-27T20:57:46.922Z,3.50
2018-03-27T21:00:14.562Z,3.50
2018-03-27T21:02:42.159Z,3.50
2018-03-27T21:05:09.770Z,3.50
2018-03-27T21:07:38.169Z,3.50
2018-03-27T21:10:06.511Z,3.40
2018-03-27T21:12:34.189Z,3.50
2018-03-27T21:15:01.778Z,3.50
2018-03-27T21:17:29.405Z,3.60
2018-03-27T21:19:56.994Z,3.50
2018-03-27T21:22:24.610Z,3.60
2018-03-27T22:46:50.124Z,3.50
2018-03-27T22:49:17.716Z,3.40
2018-03-27T22:51:45.325Z,3.40
2018-03-27T22:54:12.904Z,3.50
2018-03-27T22:56:40.511Z,3.50
2018-03-27T22:59:08.867Z,3.60
2018-03-27T23:01:36.485Z,3.50
2018-03-27T23:04:04.072Z,3.50
2018-03-27T23:06:31.657Z,3.50
2018-03-27T23:08:59.261Z,3.50
2018-03-27T23:11:26.840Z,3.50
2018-03-27T23:13:54.439Z,3.50
2018-03-27T23:16:22.796Z,3.50
2018-03-27T23:18:50.412Z,3.40
2018-03-27T23:21:18.000Z,3.50
2018-03-27T23:23:45.595Z,3.50
2018-03-27T23:26:13.182Z,3.50
2018-03-27T23:28:40.765Z,3.50
2018-03-27T23:31:08.392Z,3.50
2018-03-27T23:33:35.973Z,3.40
2018-03-27T23:36:03.575Z,3.50
2018-03-27T23:38:31.239Z,3.50
2018-03-27T23:40:58.853Z,3.50
2018-03-27T23:43:27.220Z,3.60
2018-03-27T23:45:54.808Z,3.50
2018-03-27T23:48:22.454Z,3.60
2018-03-27T23:50:50.072Z,3.60
2018-03-27T23:53:18.425Z,3.70
2018-03-27T23:55:46.009Z,3.60
2018-03-27T23:58:13.630Z,3.70
